Time;durP1;ratioP1;P1;durP2;ratioP2;P2;SDS_P1;SDS_P2;PMS_P1;PMS_P2;Temp;Humidity;BMP_temperature;BMP_pressure;BME280_temperature;BME280_humidity;BME280_pressure;Samples;Min_cycle;Max_cycle;Signal;HPM_P1;HPM_P2
2022/12/14 00:00:44;;;;;;;13.27;10.48;;;6.50;99.90;;;;;;5035006;28;20067;-89
2022/12/14 00:03:11;;;;;;;15.55;11.27;;;6.20;99.90;;;;;;5022311;28;20446;-88
2022/12/14 00:05:37;;;;;;;14.18;11.05;;;6.60;99.90;;;;;;5014742;28;20025;-88
2022/12/14 00:08:03;;;;;;;16.52;11.80;;;6.20;99.90;;;;;;5015362;28;20037;-89
2022/12/14 00:10:28;;;;;;;18.55;13.40;;;6.10;99.90;;;;;;5014908;28;20069;-89
2022/12/14 00:12:54;;;;;;;15.93;12.50;;;5.90;99.90;;;;;;5033605;28;20482;-89
2022/12/14 00:15:20;;;;;;;17.05;11.93;;;5.80;99.90;;;;;;5016270;28;20033;-88
2022/12/14 00:17:45;;;;;;;18.45;12.90;;;5.80;99.90;;;;;;5017407;28;20029;-89
2022/12/14 00:20:11;;;;;;;18.60;13.23;;;6.10;99.90;;;;;;5014573;28;20113;-88
2022/12/14 00:22:37;;;;;;;17.90;13.20;;;5.70;99.90;;;;;;5011449;28;20033;-88
2022/12/14 00:25:03;;;;;;;19.48;14.15;;;6.00;99.90;;;;;;5033967;28;20044;-88
2022/12/14 00:27:29;;;;;;;22.50;14.98;;;5.50;99.90;;;;;;5034089;28;20029;-88
2022/12/14 00:29:54;;;;;;;21.45;14.77;;;5.50;99.90;;;;;;5016491;28;20486;-88
2022/12/14 00:32:21;;;;;;;21.42;15.35;;;5.60;99.90;;;;;;5034088;28;20026;-88
2022/12/14 00:34:46;;;;;;;21.92;15.27;;;5.80;99.90;;;;;;5033382;28;20036;-88
2022/12/14 00:37:12;;;;;;;19.35;13.90;;;6.00;99.90;;;;;;5033936;28;20025;-88
2022/12/14 00:39:37;;;;;;;17.55;13.43;;;6.10;99.90;;;;;;5001087;28;20072;-88
2022/12/14 00:42:03;;;;;;;16.52;12.05;;;5.70;99.90;;;;;;5024567;28;20104;-88
2022/12/14 00:44:29;;;;;;;15.45;11.70;;;5.80;99.90;;;;;;5033602;28;20033;-88
2022/12/14 00:46:54;;;;;;;15.98;11.23;;;5.90;99.90;;;;;;5030209;28;20501;-88
2022/12/14 00:49:20;;;;;;;16.92;12.25;;;5.90;99.90;;;;;;4996773;28;20041;-88
2022/12/14 00:51:45;;;;;;;17.10;11.77;;;5.80;99.90;;;;;;5023375;28;20025;-88
2022/12/14 00:54:11;;;;;;;17.58;12.18;;;5.60;99.90;;;;;;5016295;28;20033;-88
2022/12/14 00:56:36;;;;;;;20.33;14.05;;;5.80;99.90;;;;;;5033217;28;20029;-88
2022/12/14 00:59:02;;;;;;;22.13;15.35;;;5.80;99.90;;;;;;5033681;28;20460;-89
2022/12/14 01:01:29;;;;;;;21.73;14.35;;;5.20;99.90;;;;;;5033933;28;20179;-88
2022/12/14 01:04:15;;;;;;;21.65;15.25;;;5.20;99.90;;;;;;5023647;28;20030;-88
2022/12/14 01:06:45;;;;;;;22.90;16.10;;;5.20;99.90;;;;;;5013877;28;20037;-88
2022/12/14 01:09:12;;;;;;;22.48;15.38;;;5.00;99.90;;;;;;5014225;28;20376;-88
2022/12/14 01:11:38;;;;;;;23.08;16.45;;;5.10;99.90;;;;;;5005861;28;20406;-88
2022/12/14 01:14:04;;;;;;;22.88;15.57;;;5.30;99.90;;;;;;5032907;28;20398;-89
2022/12/14 01:16:30;;;;;;;23.30;16.20;;;5.00;99.90;;;;;;5032559;28;20048;-88
2022/12/14 01:18:58;;;;;;;21.63;16.15;;;5.00;99.90;;;;;;5033256;28;20396;-87
2022/12/14 01:21:24;;;;;;;24.40;16.48;;;5.10;99.90;;;;;;5032699;28;20034;-88
2022/12/14 01:23:52;;;;;;;21.67;15.45;;;5.30;99.90;;;;;;5033060;28;20036;-88
2022/12/14 01:26:18;;;;;;;22.63;15.52;;;5.50;99.90;;;;;;5033296;28;20274;-88
2022/12/14 01:28:46;;;;;;;22.83;16.08;;;5.10;99.90;;;;;;5033020;28;20386;-88
2022/12/14 01:31:14;;;;;;;21.85;15.63;;;5.00;99.90;;;;;;5032947;28;20095;-88
2022/12/14 01:33:40;;;;;;;24.27;17.20;;;4.90;99.90;;;;;;5032368;28;20384;-88
2022/12/14 01:36:15;;;;;;;23.52;15.77;;;5.30;99.90;;;;;;5032888;28;20109;-88
2022/12/14 01:38:41;;;;;;;21.48;15.13;;;5.00;99.90;;;;;;5032624;28;20100;-89
2022/12/14 01:41:08;;;;;;;19.85;13.60;;;5.30;99.90;;;;;;5032783;28;20109;-88
2022/12/14 01:43:55;;;;;;;18.83;13.13;;;5.20;99.90;;;;;;5014876;28;20386;-89
2022/12/14 01:46:32;;;;;;;19.95;13.85;;;5.00;99.90;;;;;;5032102;28;20022;-88
2022/12/14 01:49:18;;;;;;;20.63;14.57;;;4.90;99.90;;;;;;4999148;28;20038;-88
2022/12/14 01:51:57;;;;;;;20.42;14.52;;;5.00;99.90;;;;;;5017799;28;20095;-88
2022/12/14 01:54:26;;;;;;;19.98;13.27;;;5.60;99.90;;;;;;5032561;28;20044;-89
2022/12/14 01:56:54;;;;;;;18.27;14.20;;;5.30;99.90;;;;;;5032654;28;20029;-89
2022/12/14 01:59:29;;;;;;;17.33;12.63;;;5.70;99.90;;;;;;5032906;28;20474;-88
2022/12/14 02:01:56;;;;;;;14.98;10.10;;;5.90;99.90;;;;;;5032378;28;20025;-88
2022/12/14 02:04:22;;;;;;;14.10;10.43;;;6.00;99.90;;;;;;5023392;28;20056;-89
2022/12/14 02:06:49;;;;;;;14.95;10.85;;;5.80;99.90;;;;;;5011853;28;20109;-88
2022/12/14 02:09:24;;;;;;;12.43;9.80;;;5.90;99.90;;;;;;5012630;28;20065;-88
2022/12/14 02:12:11;;;;;;;18.60;13.23;;;6.00;99.90;;;;;;5012638;28;20370;-89
2022/12/14 02:14:38;;;;;;;13.20;10.05;;;5.70;99.90;;;;;;5012802;28;20032;-88
2022/12/14 02:17:07;;;;;;;16.75;12.18;;;5.80;99.90;;;;;;5014510;28;20142;-89
2022/12/14 02:19:33;;;;;;;16.92;11.95;;;6.00;99.90;;;;;;5032111;28;20026;-89
2022/12/14 02:22:23;;;;;;;18.92;13.73;;;5.90;99.90;;;;;;5032131;28;20049;-88
2022/12/14 02:24:51;;;;;;;19.95;13.85;;;5.70;99.90;;;;;;5032636;28;20029;-88
2022/12/14 02:27:49;;;;;;;22.25;15.43;;;5.40;99.90;;;;;;5031905;28;20021;-89
2022/12/14 02:30:19;;;;;;;20.35;14.43;;;5.40;99.90;;;;;;5027245;28;20053;-88
2022/12/14 02:32:51;;;;;;;20.30;13.52;;;5.30;99.90;;;;;;5031777;28;20017;-88
2022/12/14 02:35:42;;;;;;;21.08;14.93;;;5.50;99.90;;;;;;5031569;28;20041;-88
2022/12/14 02:38:43;;;;;;;18.35;13.02;;;5.20;99.90;;;;;;5012749;28;20044;-88
2022/12/14 02:41:21;;;;;;;21.17;14.43;;;5.10;99.90;;;;;;5003668;28;20064;-88
2022/12/14 02:44:05;;;;;;;24.33;15.40;;;5.20;99.90;;;;;;5031063;28;20038;-89
2022/12/14 02:47:02;;;;;;;23.02;15.75;;;5.10;99.90;;;;;;5031924;28;20060;-89
2022/12/14 02:49:59;;;;;;;25.00;15.88;;;5.30;99.90;;;;;;5028047;28;20482;-88
2022/12/14 02:52:39;;;;;;;22.13;16.17;;;5.30;99.90;;;;;;5031389;28;20068;-89
2022/12/14 02:55:30;;;;;;;19.50;14.20;;;5.30;99.90;;;;;;5031799;28;20033;-89
2022/12/14 02:58:03;;;;;;;22.42;15.38;;;5.10;99.90;;;;;;5013527;28;20037;-88
2022/12/14 03:00:32;;;;;;;20.67;14.23;;;5.50;99.90;;;;;;5013321;28;20466;-88
2022/12/14 03:02:59;;;;;;;22.75;15.70;;;5.50;99.90;;;;;;5031297;28;20029;-88
2022/12/14 03:05:25;;;;;;;23.58;16.13;;;5.30;99.90;;;;;;5018227;28;20026;-88
2022/12/14 03:07:58;;;;;;;18.02;12.60;;;5.80;99.90;;;;;;5012456;28;20390;-89
2022/12/14 03:10:33;;;;;;;19.63;13.68;;;5.50;99.90;;;;;;5031703;28;20397;-89
2022/12/14 03:13:18;;;;;;;17.73;12.75;;;5.40;99.90;;;;;;5031343;28;20037;-89
2022/12/14 03:15:51;;;;;;;15.43;11.07;;;5.70;99.90;;;;;;5030435;28;20065;-89
2022/12/14 03:18:19;;;;;;;13.82;10.07;;;5.70;99.90;;;;;;5032946;28;20045;-89
2022/12/14 03:20:48;;;;;;;13.15;9.45;;;5.90;99.90;;;;;;5029718;28;20060;-88
2022/12/14 03:23:24;;;;;;;17.38;12.57;;;6.00;99.90;;;;;;5015585;28;20022;-88
2022/12/14 03:26:00;;;;;;;17.92;11.70;;;6.20;99.90;;;;;;5016052;28;20030;-89
2022/12/14 03:28:41;;;;;;;18.83;12.85;;;6.10;99.90;;;;;;4997622;28;20022;-88
2022/12/14 03:31:19;;;;;;;13.60;9.60;;;5.80;99.90;;;;;;5024288;28;20259;-89
2022/12/14 03:33:48;;;;;;;20.08;13.68;;;5.90;99.90;;;;;;5035281;28;20029;-89
2022/12/14 03:36:23;;;;;;;21.77;14.35;;;5.90;99.90;;;;;;5035196;28;20022;-88
2022/12/14 03:38:53;;;;;;;20.23;14.18;;;5.80;99.90;;;;;;5026611;28;20158;-89
2022/12/14 03:41:36;;;;;;;12.63;8.77;;;5.90;99.90;;;;;;5035091;28;20088;-89
2022/12/14 03:44:17;;;;;;;13.77;10.35;;;6.00;99.90;;;;;;5017456;28;20039;-88
2022/12/14 03:46:51;;;;;;;15.60;10.93;;;6.00;99.90;;;;;;5033580;28;20079;-89
2022/12/14 03:49:44;;;;;;;15.57;11.45;;;6.40;99.90;;;;;;5034377;28;20512;-88
2022/12/14 03:52:28;;;;;;;19.35;12.48;;;5.80;99.90;;;;;;5035151;28;20401;-88
2022/12/14 03:55:21;;;;;;;18.02;13.20;;;5.60;99.90;;;;;;5034723;28;20134;-89
2022/12/14 03:58:07;;;;;;;19.23;13.07;;;5.50;99.90;;;;;;5034410;28;20037;-89
2022/12/14 04:01:01;;;;;;;18.55;12.95;;;5.80;99.90;;;;;;5034803;28;20033;-89
2022/12/14 04:04:09;;;;;;;19.30;14.52;;;5.80;99.90;;;;;;5034474;28;20029;-89
2022/12/14 04:06:37;;;;;;;20.80;14.38;;;5.50;99.90;;;;;;5034577;28;20037;-89
2022/12/14 04:09:33;;;;;;;21.90;14.80;;;5.50;99.90;;;;;;5016656;28;20079;-89
2022/12/14 04:21:05;;;;;;;19.95;13.40;;;5.50;99.90;;;;;;5034152;28;20037;-89
2022/12/14 04:26:26;;;;;;;21.27;14.50;;;5.60;99.90;;;;;;5034186;28;20072;-89
2022/12/14 04:31:53;;;;;;;22.92;15.77;;;5.60;99.90;;;;;;5034290;28;20088;-89
2022/12/14 04:34:22;;;;;;;21.45;15.68;;;5.40;99.90;;;;;;5034166;28;20128;-89
2022/12/14 04:37:01;;;;;;;20.55;15.15;;;5.30;99.90;;;;;;5033978;28;20044;-88
2022/12/14 04:39:37;;;;;;;21.95;14.90;;;5.30;99.90;;;;;;5034221;28;20095;-89
2022/12/14 04:42:06;;;;;;;22.30;15.30;;;5.30;99.90;;;;;;5033817;28;20393;-89
2022/12/14 04:44:36;;;;;;;22.83;14.85;;;5.40;99.90;;;;;;5034302;28;20025;-89
2022/12/14 04:47:04;;;;;;;21.27;15.05;;;5.10;99.90;;;;;;5033921;28;20045;-88
2022/12/14 04:50:03;;;;;;;20.75;14.32;;;5.10;99.90;;;;;;5033973;28;20048;-89
2022/12/14 04:52:45;;;;;;;20.52;14.63;;;5.20;99.90;;;;;;5033980;28;20600;-88
2022/12/14 04:55:42;;;;;;;20.42;14.07;;;5.30;99.90;;;;;;5019092;28;20017;-89
2022/12/14 04:58:14;;;;;;;22.55;14.80;;;5.40;99.90;;;;;;5033264;28;20498;-89
2022/12/14 05:01:03;;;;;;;19.55;14.15;;;5.50;99.90;;;;;;5033307;28;20029;-89
2022/12/14 05:03:33;;;;;;;20.85;14.23;;;5.20;99.90;;;;;;5017012;28;20045;-89
2022/12/14 05:06:12;;;;;;;21.67;15.32;;;5.40;99.90;;;;;;5033340;28;20045;-89
2022/12/14 05:09:15;;;;;;;23.67;16.10;;;5.50;99.90;;;;;;5016100;28;20025;-88
2022/12/14 05:12:10;;;;;;;20.30;13.73;;;5.10;99.90;;;;;;5030087;28;20577;-88
2022/12/14 05:14:45;;;;;;;19.05;13.52;;;5.10;99.90;;;;;;5013476;28;20040;-88
2022/12/14 05:17:11;;;;;;;26.58;17.70;;;5.30;99.90;;;;;;5028753;28;20073;-89
2022/12/14 05:19:43;;;;;;;27.92;17.88;;;5.50;99.90;;;;;;5033507;28;20021;-89
2022/12/14 05:22:08;;;;;;;27.10;18.13;;;5.20;99.90;;;;;;5033166;28;20037;-89
2022/12/14 05:24:34;;;;;;;25.33;17.88;;;5.20;99.90;;;;;;5033188;28;20548;-88
2022/12/14 05:27:00;;;;;;;26.08;18.23;;;5.20;99.90;;;;;;5032855;28;20057;-89
2022/12/14 05:29:25;;;;;;;26.65;17.52;;;5.30;99.90;;;;;;5033488;28;20044;-89
2022/12/14 05:31:51;;;;;;;24.15;15.18;;;5.10;99.90;;;;;;5014596;28;20034;-90
2022/12/14 05:34:17;;;;;;;23.23;15.05;;;5.30;99.90;;;;;;5032793;28;20030;-89
2022/12/14 05:36:42;;;;;;;24.98;16.38;;;5.10;99.90;;;;;;5033623;28;20036;-89
2022/12/14 05:39:08;;;;;;;27.95;16.13;;;5.40;99.90;;;;;;5014914;28;20033;-89
2022/12/14 05:41:34;;;;;;;30.00;19.00;;;4.80;99.90;;;;;;5032506;28;20056;-89
2022/12/14 05:43:59;;;;;;;31.25;20.83;;;4.80;99.90;;;;;;5032605;28;20114;-89
2022/12/14 05:46:25;;;;;;;28.00;19.00;;;5.20;99.90;;;;;;5032300;28;20032;-89
2022/12/14 05:48:50;;;;;;;31.95;19.23;;;5.10;99.90;;;;;;5032298;28;20406;-88
2022/12/14 05:51:16;;;;;;;25.88;16.45;;;4.90;99.90;;;;;;5032716;28;20037;-88
2022/12/14 05:53:42;;;;;;;29.85;19.08;;;4.60;99.90;;;;;;5032095;28;20030;-88
2022/12/14 05:56:09;;;;;;;27.70;18.80;;;4.90;99.90;;;;;;5014704;28;20489;-89
2022/12/14 05:58:35;;;;;;;28.10;19.10;;;4.70;99.90;;;;;;5032138;28;20037;-88
2022/12/14 06:01:02;;;;;;;29.27;18.48;;;4.40;99.90;;;;;;5014413;28;20402;-88
2022/12/14 06:03:28;;;;;;;31.30;19.23;;;4.40;99.90;;;;;;5032314;28;20482;-88
2022/12/14 06:05:54;;;;;;;27.27;17.27;;;4.80;99.90;;;;;;5032330;28;20057;-88
2022/12/14 06:08:20;;;;;;;30.33;19.50;;;4.40;99.90;;;;;;5032086;28;20041;-88
2022/12/14 06:10:46;;;;;;;30.15;18.45;;;4.40;99.90;;;;;;5032302;28;20490;-88
2022/12/14 06:13:11;;;;;;;29.90;18.58;;;4.40;99.90;;;;;;5032693;28;20108;-88
2022/12/14 06:15:37;;;;;;;30.33;18.15;;;4.30;99.90;;;;;;5032431;28;20069;-88
2022/12/14 06:18:03;;;;;;;27.00;17.15;;;4.50;99.90;;;;;;5032931;28;20108;-88
2022/12/14 06:20:28;;;;;;;27.88;17.63;;;4.20;99.90;;;;;;5032174;28;20492;-88
2022/12/14 06:22:54;;;;;;;31.83;18.23;;;4.20;99.90;;;;;;5031961;28;20075;-88
2022/12/14 06:25:20;;;;;;;28.15;17.75;;;4.60;99.90;;;;;;5032247;28;20068;-88
2022/12/14 06:27:46;;;;;;;27.17;17.33;;;4.20;99.90;;;;;;5014619;28;20097;-88
2022/12/14 06:30:12;;;;;;;31.83;18.00;;;4.40;99.90;;;;;;5032282;28;20037;-87
2022/12/14 06:32:37;;;;;;;28.63;17.20;;;4.30;99.90;;;;;;5014996;28;20030;-88
2022/12/14 06:35:04;;;;;;;24.50;15.88;;;4.30;99.90;;;;;;5032246;28;20030;-88
2022/12/14 06:37:30;;;;;;;34.75;19.92;;;4.40;99.90;;;;;;5031813;28;20394;-87
2022/12/14 06:39:56;;;;;;;28.48;18.20;;;4.50;99.90;;;;;;5032156;28;20029;-88
2022/12/14 06:42:21;;;;;;;39.08;22.30;;;4.70;99.90;;;;;;5032212;28;20025;-88
2022/12/14 06:44:47;;;;;;;34.25;22.73;;;4.40;99.90;;;;;;5032727;28;20513;-88
2022/12/14 06:47:12;;;;;;;33.95;20.52;;;4.60;99.90;;;;;;5032098;28;20022;-88
2022/12/14 06:49:38;;;;;;;29.75;19.25;;;4.80;99.90;;;;;;5014353;28;20116;-88
2022/12/14 06:52:04;;;;;;;28.92;18.23;;;4.70;99.90;;;;;;5031921;28;20477;-88
2022/12/14 06:54:29;;;;;;;26.90;17.40;;;4.50;99.90;;;;;;5031737;28;20024;-88
2022/12/14 06:56:55;;;;;;;28.73;17.65;;;4.70;99.90;;;;;;5031776;28;20552;-88
2022/12/14 06:59:21;;;;;;;30.20;17.55;;;5.00;99.90;;;;;;5032069;28;20422;-88
2022/12/14 07:01:46;;;;;;;28.58;16.98;;;5.30;99.90;;;;;;5032078;28;20040;-88
2022/12/14 07:04:13;;;;;;;31.95;18.70;;;4.90;99.90;;;;;;5014421;28;20017;-88
2022/12/14 07:06:40;;;;;;;28.88;17.10;;;5.50;99.90;;;;;;5031866;28;20552;-88
2022/12/14 07:09:09;;;;;;;25.77;16.20;;;5.00;99.90;;;;;;5031754;28;20072;-88
2022/12/14 07:11:35;;;;;;;31.73;20.48;;;4.90;99.90;;;;;;5031900;28;20060;-88
2022/12/14 07:14:04;;;;;;;34.25;21.60;;;4.90;99.90;;;;;;5031904;28;20497;-88
2022/12/14 07:16:31;;;;;;;34.90;21.23;;;4.90;99.90;;;;;;5031511;28;20162;-88
2022/12/14 07:18:57;;;;;;;51.78;29.90;;;5.20;99.90;;;;;;5032073;28;20041;-88
2022/12/14 07:21:24;;;;;;;35.83;20.63;;;4.90;99.90;;;;;;5013601;28;20041;-88
2022/12/14 07:23:53;;;;;;;36.72;22.73;;;5.20;99.90;;;;;;5013783;28;20025;-88
2022/12/14 07:26:24;;;;;;;33.28;20.73;;;5.00;99.90;;;;;;5031846;28;20409;-88
2022/12/14 07:28:50;;;;;;;51.63;35.55;;;5.00;99.90;;;;;;5032057;28;20366;-88
2022/12/14 07:31:22;;;;;;;44.50;29.17;;;5.10;99.90;;;;;;5031611;28;20049;-88
2022/12/14 07:33:48;;;;;;;51.72;35.47;;;5.60;99.90;;;;;;5031079;28;20021;-88
2022/12/14 07:36:16;;;;;;;38.72;26.15;;;5.50;99.90;;;;;;5014476;28;20507;-88
2022/12/14 07:38:44;;;;;;;76.53;48.03;;;5.20;99.90;;;;;;5031510;28;20021;-88
2022/12/14 07:41:15;;;;;;;49.60;28.60;;;5.30;99.90;;;;;;5031641;28;20056;-88
2022/12/14 07:43:42;;;;;;;68.70;43.58;;;5.50;99.90;;;;;;5031554;28;20026;-88
2022/12/14 07:46:11;;;;;;;49.20;31.80;;;5.50;99.90;;;;;;5031688;28;20026;-88
2022/12/14 07:48:37;;;;;;;35.10;24.33;;;5.30;99.90;;;;;;5031521;28;20088;-88
2022/12/14 07:51:05;;;;;;;37.75;25.20;;;5.30;99.90;;;;;;5013709;28;20037;-88
2022/12/14 07:53:31;;;;;;;37.20;23.50;;;5.40;99.90;;;;;;5031527;28;20026;-88
2022/12/14 07:56:01;;;;;;;34.25;22.40;;;5.40;99.90;;;;;;5031825;28;20026;-88
2022/12/14 07:58:26;;;;;;;36.20;24.17;;;5.40;99.90;;;;;;5031287;28;20083;-88
2022/12/14 08:00:52;;;;;;;35.25;22.70;;;5.30;99.90;;;;;;5031508;28;20417;-88
2022/12/14 08:03:17;;;;;;;40.92;26.45;;;5.70;99.90;;;;;;5031237;28;20034;-88
2022/12/14 08:05:43;;;;;;;41.17;27.23;;;5.70;99.90;;;;;;5033743;28;20056;-88
2022/12/14 08:08:09;;;;;;;39.83;26.85;;;5.60;99.90;;;;;;5035029;28;20026;-86
2022/12/14 08:10:34;;;;;;;41.65;27.92;;;5.50;99.90;;;;;;5034754;28;20037;-88
2022/12/14 08:13:00;;;;;;;40.88;26.45;;;5.50;99.90;;;;;;5035255;28;20059;-87
2022/12/14 08:15:25;;;;;;;35.35;23.35;;;5.80;99.90;;;;;;5034649;28;20037;-88
2022/12/14 08:17:51;;;;;;;46.22;32.67;;;6.00;99.90;;;;;;5034382;28;20096;-88
2022/12/14 08:20:17;;;;;;;34.25;23.48;;;5.60;99.90;;;;;;5035161;28;20029;-88
2022/12/14 08:22:42;;;;;;;37.00;24.55;;;5.50;99.90;;;;;;5034303;28;20025;-88
2022/12/14 08:25:08;;;;;;;34.58;23.30;;;5.90;99.90;;;;;;5034673;28;20371;-88
2022/12/14 08:27:34;;;;;;;35.60;23.02;;;5.40;99.90;;;;;;5016801;28;20028;-88
2022/12/14 08:29:59;;;;;;;37.33;24.60;;;5.50;99.90;;;;;;5034380;28;20037;-88
2022/12/14 08:32:25;;;;;;;35.42;24.40;;;5.40;99.90;;;;;;5034490;28;20051;-88
2022/12/14 08:34:50;;;;;;;37.53;22.50;;;5.50;99.90;;;;;;5034342;28;20029;-88
2022/12/14 08:37:16;;;;;;;27.17;17.55;;;5.60;99.90;;;;;;5034331;28;20067;-88
2022/12/14 08:39:41;;;;;;;16.98;12.20;;;6.10;99.90;;;;;;5034403;28;20025;-88
2022/12/14 08:42:07;;;;;;;11.25;7.70;;;6.50;99.90;;;;;;5034184;28;20029;-88
2022/12/14 08:44:33;;;;;;;6.57;5.10;;;6.80;99.90;;;;;;5034299;28;20053;-88
2022/12/14 08:46:59;;;;;;;8.93;5.55;;;7.20;99.90;;;;;;5034290;28;20075;-88
2022/12/14 08:49:24;;;;;;;8.10;5.78;;;7.50;99.90;;;;;;5034127;28;20088;-88
2022/12/14 08:51:50;;;;;;;9.05;6.80;;;7.80;99.90;;;;;;5033964;28;20083;-88
2022/12/14 08:54:17;;;;;;;9.60;6.22;;;8.50;99.90;;;;;;5034149;28;20021;-88
2022/12/14 08:56:43;;;;;;;5.03;4.22;;;8.70;99.90;;;;;;5033886;28;20410;-88
2022/12/14 08:59:08;;;;;;;4.53;3.72;;;9.40;99.90;;;;;;5033775;28;20018;-88
2022/12/14 09:01:34;;;;;;;5.50;3.20;;;9.70;99.90;;;;;;5033545;28;20022;-88
2022/12/14 09:04:05;;;;;;;3.72;2.85;;;13.80;99.90;;;;;;5034289;28;20083;-89
2022/12/14 09:06:33;;;;;;;2.22;1.90;;;13.20;99.90;;;;;;5034115;28;20028;-89
2022/12/14 09:08:59;;;;;;;2.10;1.73;;;16.70;99.90;;;;;;5033814;28;20549;-88
2022/12/14 09:11:24;;;;;;;3.50;1.90;;;19.10;99.90;;;;;;5033657;28;20168;-88
2022/12/14 09:13:54;;;;;;;2.30;1.67;;;18.10;99.90;;;;;;5034072;28;20395;-89
2022/12/14 09:16:21;;;;;;;2.10;1.80;;;14.40;99.90;;;;;;5032929;28;20049;-88
2022/12/14 09:18:47;;;;;;;2.65;1.65;;;12.80;99.90;;;;;;5033611;28;20030;-89
2022/12/14 09:21:14;;;;;;;2.53;1.42;;;11.80;99.90;;;;;;5033650;28;20386;-89
2022/12/14 09:23:40;;;;;;;1.83;1.50;;;11.20;99.90;;;;;;5033460;28;20040;-89
2022/12/14 09:26:19;;;;;;;3.53;2.78;;;10.80;99.90;;;;;;5033468;28;20017;-88
2022/12/14 09:28:50;;;;;;;2.35;1.58;;;10.60;99.90;;;;;;5033474;28;20029;-88
2022/12/14 09:31:18;;;;;;;3.17;1.65;;;10.40;99.90;;;;;;5032892;28;20417;-88
2022/12/14 09:33:44;;;;;;;2.58;1.70;;;10.20;99.90;;;;;;5033521;28;20028;-88
2022/12/14 09:36:15;;;;;;;2.05;1.70;;;10.40;99.90;;;;;;5033356;28;20025;-88
2022/12/14 09:38:42;;;;;;;2.95;1.90;;;10.50;99.90;;;;;;5033149;28;20021;-88
2022/12/14 09:41:32;;;;;;;2.45;1.83;;;10.50;99.90;;;;;;5033520;28;20486;-88
2022/12/14 09:44:04;;;;;;;32.67;17.15;;;10.40;99.90;;;;;;5015496;28;20508;-88
2022/12/14 09:46:59;;;;;;;10.13;7.47;;;10.40;99.90;;;;;;5032774;28;20021;-88
2022/12/14 09:49:31;;;;;;;72.18;46.15;;;10.40;99.90;;;;;;5032897;28;20091;-88
2022/12/14 09:52:01;;;;;;;25.65;17.42;;;10.30;99.90;;;;;;5032924;28;20032;-88
2022/12/14 09:54:33;;;;;;;20.13;13.32;;;10.40;99.90;;;;;;5033350;28;20029;-88
2022/12/14 09:57:41;;;;;;;4.13;3.45;;;10.40;99.90;;;;;;5032831;28;20115;-89
2022/12/14 10:00:18;;;;;;;7.78;5.50;;;10.40;99.90;;;;;;5011642;28;20033;-88
2022/12/14 10:03:16;;;;;;;4.47;3.28;;;10.40;99.90;;;;;;5032564;28;20534;-88
2022/12/14 10:06:31;;;;;;;4.35;2.78;;;10.30;99.90;;;;;;5032675;28;20022;-89
2022/12/14 10:09:12;;;;;;;3.70;3.17;;;10.30;99.90;;;;;;4933254;29;20035;-89
2022/12/14 10:12:02;;;;;;;3.65;3.03;;;10.30;99.90;;;;;;4933192;29;20417;-89
2022/12/14 10:14:33;;;;;;;3.88;2.80;;;10.30;99.90;;;;;;4932864;29;20098;-88
2022/12/14 10:17:12;;;;;;;3.53;2.80;;;10.40;99.90;;;;;;4932928;29;20076;-88
2022/12/14 10:19:50;;;;;;;3.97;3.15;;;10.40;99.90;;;;;;4933389;29;20062;-88
2022/12/14 10:22:20;;;;;;;4.10;2.70;;;10.50;99.90;;;;;;4932972;29;20055;-88
2022/12/14 10:24:49;;;;;;;4.68;2.22;;;10.60;99.90;;;;;;4933623;29;20107;-89
2022/12/14 10:27:24;;;;;;;3.38;2.20;;;10.70;99.90;;;;;;4932687;29;20467;-89
2022/12/14 10:30:04;;;;;;;2.80;2.10;;;10.60;99.90;;;;;;4932606;29;20532;-89
2022/12/14 10:32:38;;;;;;;2.22;1.92;;;10.70;99.90;;;;;;4933270;29;20099;-88
2022/12/14 10:35:28;;;;;;;3.55;2.17;;;10.80;99.90;;;;;;4917080;29;20440;-88
2022/12/14 10:38:30;;;;;;;4.82;3.22;;;11.00;99.90;;;;;;4932972;29;20110;-89
2022/12/14 10:41:25;;;;;;;3.78;3.22;;;11.00;99.90;;;;;;4951888;29;20039;-88
2022/12/14 10:44:14;;;;;;;2.97;2.50;;;11.10;99.90;;;;;;4935193;29;20039;-88
2022/12/14 10:47:04;;;;;;;4.85;4.03;;;10.90;99.90;;;;;;4951681;29;20032;-88
2022/12/14 10:49:37;;;;;;;2.72;2.40;;;10.70;99.90;;;;;;4952373;29;20494;-89
2022/12/14 10:52:13;;;;;;;3.13;2.80;;;10.70;99.90;;;;;;4951652;28;20114;-88
2022/12/14 10:54:55;;;;;;;5.03;3.15;;;10.60;99.90;;;;;;4952292;29;20032;-88
2022/12/14 10:57:27;;;;;;;2.53;2.00;;;10.60;99.90;;;;;;4935263;28;20031;-88
2022/12/14 10:59:56;;;;;;;2.83;2.17;;;10.50;99.90;;;;;;4951793;29;20033;-88
2022/12/14 11:02:27;;;;;;;2.72;2.03;;;10.50;99.90;;;;;;4951861;29;20082;-89
2022/12/14 11:05:00;;;;;;;2.80;2.17;;;10.60;99.90;;;;;;4935753;29;20456;-88
2022/12/14 11:07:48;;;;;;;3.42;2.38;;;10.50;99.90;;;;;;4951820;29;20042;-88
2022/12/14 11:10:15;;;;;;;4.53;2.20;;;10.50;99.90;;;;;;4951945;29;20038;-88
2022/12/14 11:12:50;;;;;;;4.00;2.20;;;10.50;99.90;;;;;;4951355;29;20036;-88
2022/12/14 11:15:26;;;;;;;3.33;2.40;;;10.40;99.90;;;;;;4951379;29;20106;-88
2022/12/14 11:18:03;;;;;;;4.55;3.38;;;10.70;99.90;;;;;;4974992;28;20073;-88
2022/12/14 11:20:29;;;;;;;3.80;3.33;;;10.60;99.90;;;;;;4992466;28;20045;-88
2022/12/14 11:23:07;;;;;;;2.95;2.10;;;10.40;99.90;;;;;;4991228;28;20034;-88
2022/12/14 11:25:34;;;;;;;3.30;2.10;;;10.40;99.90;;;;;;4992362;28;20109;-88
2022/12/14 11:28:20;;;;;;;3.53;2.47;;;10.40;99.90;;;;;;4991026;28;20056;-88
2022/12/14 11:31:04;;;;;;;2.63;1.80;;;10.60;99.90;;;;;;4992174;28;20081;-88
2022/12/14 11:33:44;;;;;;;3.13;1.83;;;10.50;99.90;;;;;;4992429;28;20077;-87
2022/12/14 11:36:26;;;;;;;3.05;2.20;;;10.50;99.90;;;;;;4992376;28;20375;-88
2022/12/14 11:38:56;;;;;;;2.83;1.60;;;10.40;99.90;;;;;;4993094;28;20019;-88
2022/12/14 11:41:22;;;;;;;2.72;1.95;;;10.30;99.90;;;;;;4995813;28;20058;-88
2022/12/14 11:44:02;;;;;;;2.13;1.88;;;10.40;99.90;;;;;;4996021;28;20027;-88
2022/12/14 11:47:03;;;;;;;1.90;1.40;;;10.40;99.90;;;;;;4996057;28;20058;-88
2022/12/14 11:49:45;;;;;;;2.10;1.90;;;10.60;99.90;;;;;;4898222;29;20056;-88
2022/12/14 11:52:12;;;;;;;1.60;1.50;;;11.10;99.90;;;;;;4898298;29;20044;-88
2022/12/14 11:54:41;;;;;;;1.83;1.63;;;11.00;99.90;;;;;;4897444;29;20028;-88
2022/12/14 11:57:12;;;;;;;1.88;1.45;;;11.20;99.90;;;;;;4897597;29;20025;-88
2022/12/14 11:59:37;;;;;;;2.38;1.60;;;11.10;99.90;;;;;;4897834;29;20049;-88
2022/12/14 12:02:25;;;;;;;1.50;1.40;;;11.10;99.90;;;;;;4897845;29;20025;-88
2022/12/14 12:05:06;;;;;;;2.25;1.50;;;11.10;99.90;;;;;;4897790;29;20041;-88
2022/12/14 12:07:38;;;;;;;2.35;1.85;;;11.20;99.90;;;;;;4897689;29;20514;-89
2022/12/14 12:10:12;;;;;;;2.00;1.80;;;11.20;99.90;;;;;;4897348;29;20035;-88
2022/12/14 12:12:50;;;;;;;6.53;4.78;;;11.10;99.90;;;;;;4897330;29;20049;-88
2022/12/14 12:15:28;;;;;;;3.40;1.95;;;11.30;99.90;;;;;;4898195;29;20123;-88
2022/12/14 12:18:17;;;;;;;2.80;1.88;;;11.20;99.90;;;;;;4916955;29;20147;-88
2022/12/14 12:20:51;;;;;;;1.88;1.40;;;11.30;99.90;;;;;;4916406;29;20039;-87
2022/12/14 12:23:41;;;;;;;2.42;1.50;;;11.80;99.90;;;;;;4916409;29;20068;-88
2022/12/14 12:26:18;;;;;;;2.78;1.70;;;11.70;99.90;;;;;;5011489;28;20038;-88
2022/12/14 12:28:55;;;;;;;1.77;1.52;;;11.80;99.90;;;;;;5014826;28;20129;-88
2022/12/14 12:31:30;;;;;;;2.20;1.67;;;12.00;99.90;;;;;;5014744;28;20034;-88
2022/12/14 12:34:02;;;;;;;4.13;1.60;;;12.30;99.90;;;;;;5014673;28;20053;-88
2022/12/14 12:36:31;;;;;;;1.80;1.20;;;12.70;99.90;;;;;;5014651;28;20486;-88
2022/12/14 12:39:02;;;;;;;1.70;1.40;;;13.80;99.90;;;;;;5014276;28;20029;-87
2022/12/14 12:41:48;;;;;;;3.40;1.48;;;15.00;99.90;;;;;;5014550;28;20172;-88
2022/12/14 12:44:28;;;;;;;2.10;1.55;;;16.20;99.90;;;;;;5014531;28;20030;-88
2022/12/14 12:47:25;;;;;;;2.85;1.67;;;15.30;99.90;;;;;;5014861;28;20026;-88
2022/12/14 12:49:51;;;;;;;2.10;1.80;;;16.20;99.90;;;;;;5014266;28;20038;-88
2022/12/14 12:52:20;;;;;;;4.57;1.50;;;15.90;99.90;;;;;;5014016;28;20026;-88
2022/12/14 12:55:09;;;;;;;1.63;1.10;;;15.20;99.90;;;;;;5014086;28;20026;-88
2022/12/14 12:57:41;;;;;;;3.28;2.20;;;14.30;99.90;;;;;;5014149;28;20408;-88
2022/12/14 13:00:16;;;;;;;2.55;2.30;;;13.80;99.90;;;;;;5014330;28;20092;-88
2022/12/14 13:02:53;;;;;;;1.98;1.50;;;13.70;99.90;;;;;;5014560;28;20490;-88
2022/12/14 13:05:22;;;;;;;3.30;2.15;;;13.60;99.90;;;;;;5012904;28;20030;-88
2022/12/14 13:08:00;;;;;;;2.95;2.05;;;13.90;99.90;;;;;;5013838;28;20030;-88
2022/12/14 13:10:40;;;;;;;2.10;1.42;;;13.80;99.90;;;;;;5014218;28;20037;-88
2022/12/14 13:13:11;;;;;;;1.30;1.20;;;13.90;99.90;;;;;;5013856;28;20030;-88
2022/12/14 13:15:53;;;;;;;1.20;1.10;;;13.60;99.90;;;;;;5017502;28;20042;-88
2022/12/14 13:18:24;;;;;;;2.20;1.20;;;13.40;99.90;;;;;;5033699;28;20045;-88
2022/12/14 13:20:53;;;;;;;1.30;1.20;;;13.60;99.90;;;;;;5033593;28;20022;-88
2022/12/14 13:23:21;;;;;;;1.38;1.23;;;12.90;99.90;;;;;;5033257;28;20048;-88